AA4194 / N622AE 7700 Squawk Report (4th of October, 2020)

Aircraft E145 Reg No. N622AE Age N/A
Model ERJ-145 Jet engines 2 First flight 01-99
Registered 05-06-18 Rollout 01-99 Delivered 11-02-99
Construction No. 145108 Line No. N/A Series LR
ADSHEX A81DB0 Airline name Envoy Air Owner Envoy Air
Airfield based Dallas-Fort Worth~TX~N First tracked N/A

Flight history for N622AE

Route Flight No Date Playback
Lehigh Valley Intl (ABE) - Chicago Ohare Intl (ORD) AA4041 2020-10-22 17:17:00
Chicago Ohare Intl (ORD) - Lehigh Valley Intl (ABE) AA4040 2020-10-21 03:05:00
Chicago Ohare Intl (ORD) - Bishop International (FNT) - Chicago Ohare Intl (ORD) AA3423 2020-10-20 03:05:00
Cherry Capital Airport (TVC) - Chicago Ohare Intl (ORD) AA3875 2020-10-19 18:33:00
Capital City (LAN) - Chicago Ohare Intl (ORD) AA3699 2020-10-19 16:30:00
Chicago Ohare Intl (ORD) - Cherry Capital Airport (TVC) AA4121 2020-10-19 13:30:00
Capital City (LAN) - Chicago Ohare Intl (ORD) AA3699 2020-10-19 12:19:00
Chicago Ohare Intl (ORD) - Capital City (LAN) AA3673 2020-10-19 11:33:00
Gerald R Ford Intl (GRR) - Chicago Ohare Intl (ORD) AA3640 2020-10-19 01:19:00
Chicago Ohare Intl (ORD) - Gerald R Ford Intl (GRR) AA3327 2020-10-18 22:33:00
Gerald R Ford Intl (GRR) - Chicago Ohare Intl (ORD) AA3657 2020-10-18 19:12:00
Chicago Ohare Intl (ORD) - Gerald R Ford Intl (GRR) AA3859 2020-10-18 18:11:00
Sioux Falls (FSD) - Chicago Ohare Intl (ORD) AA4092 2020-10-18 12:32:00
Chicago Ohare Intl (ORD) - Sioux Falls (FSD) AA4125 2020-10-18 02:39:00
Chicago Ohare Intl (ORD) - Nashville Intl (BNA) - Chicago Ohare Intl (ORD) AA3433 2020-10-18 01:10:00
Chicago Ohare Intl (ORD) - La Crosse Municipal (LSE) - Chicago Ohare Intl (ORD) AA3420 2020-10-17 17:53:00
Chicago Ohare Intl (ORD) - The Eastern Iowa Airport (CID) - Chicago Ohare Intl (ORD) AA4250 2020-10-13 23:33:00
Wichita Dwight D. Eisenhower (ICT) - Chicago Ohare Intl (ORD) AA3761 2020-10-13 16:11:00
Chicago Ohare Intl (ORD) - Wichita Dwight D. Eisenhower (ICT) N/A 2020-10-13 14:43:00
Rochester (RST) - Chicago Ohare Intl (ORD) AA3629 2020-10-12 23:17:00
Time Lat Lon Altitude Heading Speed Vertical Rate
2020-10-04 22:32:44 GMT 31.574148 -97.238892 975 18 140 -1088
2020-10-04 22:32:41 GMT 31.572193 -97.239662 1,000 18 140 -768
2020-10-04 22:32:31 GMT 31.566055 -97.241928 1,100 14 139 -832
2020-10-04 22:32:21 GMT 31.559950 -97.243340 1,200 8 136 -832
2020-10-04 22:32:10 GMT 31.552734 -97.243729 1,325 355 139 -320
2020-10-04 22:32:00 GMT 31.546234 -97.242035 1,375 342 144 -192
2020-10-04 22:31:50 GMT 31.539932 -97.238724 1,500 334 155 -832
2020-10-04 22:31:40 GMT 31.533695 -97.234879 1,650 331 159 -832
2020-10-04 22:31:29 GMT 31.526712 -97.230049 1,800 328 169 -192
2020-10-04 22:31:19 GMT 31.519501 -97.224426 1,900 325 184 -640
2020-10-04 22:31:09 GMT 31.512466 -97.218620 2,000 325 193 -512
2020-10-04 22:30:58 GMT 31.504486 -97.211823 2,100 324 194 -960
2020-10-04 22:30:48 GMT 31.497162 -97.205521 2,200 323 197 -640
2020-10-04 22:30:37 GMT 31.489334 -97.198524 2,300 322 198 -192
2020-10-04 22:30:27 GMT 31.482010 -97.191360 2,325 316 199 128
2020-10-04 22:30:17 GMT 31.475967 -97.183067 2,300 304 204 128
2020-10-04 22:30:07 GMT 31.471455 -97.172806 2,225 291 214 576
2020-10-04 22:29:56 GMT 31.468569 -97.160782 2,150 282 212 64
2020-10-04 22:29:45 GMT 31.466566 -97.149185 2,075 282 208 128
2020-10-04 22:29:35 GMT 31.464518 -97.137215 2,075 282 211 -192
2020-10-04 22:29:24 GMT 31.462555 -97.125710 2,100 282 212 -192
2020-10-04 22:29:14 GMT 31.460562 -97.114090 2,125 282 218 -448
2020-10-04 22:29:04 GMT 31.458389 -97.101639 2,250 282 224 -1152
2020-10-04 22:28:53 GMT 31.456146 -97.089142 2,450 282 228 -1088
2020-10-04 22:28:43 GMT 31.453857 -97.076126 2,650 282 234 -1152
2020-10-04 22:28:32 GMT 31.451250 -97.062614 2,825 284 240 -896
2020-10-04 22:28:22 GMT 31.448730 -97.049934 2,925 280 252 -576
2020-10-04 22:27:59 GMT 31.454927 -97.019218 3,625 238 270 -2560
2020-10-04 22:27:49 GMT 31.462795 -97.006584 4,075 234 270 -2496
2020-10-04 22:27:40 GMT 31.469128 -96.996643 4,450 233 268 -2560
2020-10-04 22:27:26 GMT 31.481277 -96.981812 5,025 222 268 -2432
2020-10-04 22:27:19 GMT 31.489563 -96.976921 5,325 200 272 -2496
2020-10-04 22:27:15 GMT 31.494186 -96.975456 5,500 188 275 -2432
2020-10-04 22:27:09 GMT 31.501831 -96.974541 5,750 179 277 -2432
2020-10-04 22:27:04 GMT 31.508230 -96.975166 5,925 169 279 -2368
2020-10-04 22:26:59 GMT 31.515015 -96.977287 6,150 158 281 -2560
2020-10-04 22:26:54 GMT 31.520233 -96.980087 6,350 152 281 -2816
2020-10-04 22:26:48 GMT 31.526871 -96.984985 6,600 144 282 -2496
2020-10-04 22:26:45 GMT 31.530716 -96.988167 6,750 144 281 -2496
2020-10-04 22:26:38 GMT 31.538164 -96.994339 7,025 145 280 -2496
2020-10-04 22:26:34 GMT 31.541794 -96.997322 7,175 145 280 -2560
2020-10-04 22:26:27 GMT 31.548777 -97.003128 7,450 142 279 -2304
2020-10-04 22:26:20 GMT 31.555984 -97.010406 7,600 137 278 -2176
2020-10-04 22:26:17 GMT 31.558640 -97.014122 7,850 124 278 -1984
2020-10-04 22:26:13 GMT 31.561626 -97.019440 7,975 118 279 -1984
2020-10-04 22:26:09 GMT 31.563858 -97.025215 8,125 101 280 -1984
2020-10-04 22:26:06 GMT 31.564884 -97.028946 8,200 104 279 -1920
2020-10-04 22:26:03 GMT 31.565735 -97.033401 8,300 97 280 -1920
2020-10-04 22:25:56 GMT 31.565491 -97.049980 8,625 73 281 -1856
2020-10-04 22:25:52 GMT 31.565491 -97.049980 8,650 59 285 -1856
2020-10-04 22:25:46 GMT 31.563116 -97.058662 8,850 66 280 -2048
2020-10-04 22:25:42 GMT 31.560699 -97.064262 8,975 60 280 -1920
2020-10-04 22:25:34 GMT 31.554749 -97.075897 9,250 58 284 -1920
2020-10-04 22:25:30 GMT 31.552176 -97.080910 9,375 59 285 -1856
2020-10-04 22:25:25 GMT 31.549429 -97.086235 9,500 59 287 -1728
2020-10-04 22:25:21 GMT 31.546829 -97.091301 9,600 58 289 -1216
2020-10-04 22:25:13 GMT 31.539282 -97.103264 9,775 329 298 -3200
2020-10-04 22:25:04 GMT 31.530716 -97.111343 9,875 31 300 -960
2020-10-04 22:25:00 GMT 31.525827 -97.114418 9,900 329 298 -3200
2020-10-04 22:24:54 GMT 31.517866 -97.117493 10,125 10 302 -1920
2020-10-04 22:24:50 GMT 31.512327 -97.118538 10,275 5 302 -2176
2020-10-04 22:24:43 GMT 31.502563 -97.118332 10,525 351 300 -2496
2020-10-04 22:24:39 GMT 31.497896 -97.117325 10,675 345 300 -2752
2020-10-04 22:24:32 GMT 31.488831 -97.113274 11,025 332 298 -3200
2020-10-04 22:24:29 GMT 31.484528 -97.110413 11,275 327 299 -2944
2020-10-04 22:24:22 GMT 31.470848 -97.099915 11,675 327 300 -2944
2020-10-04 22:24:17 GMT 31.470848 -97.099915 11,825 327 300 -3008
2020-10-04 22:24:12 GMT 31.464844 -97.095245 12,075 326 301 -3072
2020-10-04 22:24:08 GMT 31.460403 -97.091728 12,525 325 302 -3072
2020-10-04 22:24:04 GMT 31.454453 -97.086884 12,525 325 302 -3072
2020-10-04 22:24:01 GMT 31.452621 -97.085373 12,600 325 302 -3072
2020-10-04 22:23:56 GMT 31.446409 -97.080246 12,875 324 304 -3008
2020-10-04 22:23:51 GMT 31.440720 -97.075356 13,100 324 306 -2944
2020-10-04 22:23:47 GMT 31.435003 -97.070473 13,375 324 306 -3008
2020-10-04 22:23:39 GMT 31.425880 -97.062561 13,800 323 308 -3008
2020-10-04 22:23:36 GMT 31.423370 -97.060333 13,900 323 307 -3072
2020-10-04 22:23:30 GMT 31.417007 -97.054680 14,150 323 309 -3008
2020-10-04 22:23:26 GMT 31.411308 -97.049599 14,450 323 309 -3072
2020-10-04 22:23:18 GMT 31.402405 -97.041588 14,850 323 310 -3008
2020-10-04 22:23:15 GMT 31.399200 -97.038734 15,000 323 311 -3008
2020-10-04 22:23:09 GMT 31.393015 -97.033173 15,200 323 311 -2944
2020-10-04 22:23:06 GMT 31.389336 -97.029930 15,600 324 312 -3072
2020-10-04 22:22:59 GMT 31.381002 -97.022629 15,775 324 312 -3008
2020-10-04 22:22:55 GMT 31.376488 -97.018669 16,125 324 313 -3072
2020-10-04 22:22:48 GMT 31.368946 -97.012077 16,300 324 312 -3008
2020-10-04 22:22:44 GMT 31.362894 -97.006805 16,550 323 313 -2944
2020-10-04 22:22:38 GMT 31.356890 -97.001480 16,800 323 313 -2752
2020-10-04 22:22:34 GMT 31.352005 -96.997215 17,650 324 319 -2560
2020-10-04 22:22:31 GMT 31.348755 -96.994308 17,125 323 314 -2560
2020-10-04 22:22:27 GMT 31.343948 -96.990051 17,300 323 316 -2560
2020-10-04 22:22:23 GMT 31.337997 -96.984825 17,525 323 317 -2560
2020-10-04 22:22:17 GMT 31.328817 -96.976700 17,850 323 321 -2560
2020-10-04 22:22:14 GMT 31.328817 -96.976700 17,850 323 321 -2560
2020-10-04 22:22:11 GMT 31.325466 -96.973793 17,950 323 324 -2560
2020-10-04 22:22:07 GMT 31.320465 -96.969368 18,200 323 324 -2560
2020-10-04 22:22:02 GMT 31.313549 -96.963188 18,375 323 325 -2560
2020-10-04 22:21:56 GMT 31.307775 -96.958023 19,100 323 328 -2560
2020-10-04 22:21:53 GMT 31.303711 -96.954346 18,850 320 339 -2560
2020-10-04 22:21:49 GMT 31.299118 -96.950172 19,525 321 337 -2496
2020-10-04 22:21:46 GMT 31.295254 -96.946655 19,100 321 334 -2560
2020-10-04 22:21:43 GMT 31.291626 -96.943306 19,150 322 333 -2560
2020-10-04 22:21:40 GMT 31.286594 -96.938522 19,325 321 334 -2560
2020-10-04 22:21:36 GMT 31.282974 -96.935066 19,450 321 337 -2560
2020-10-04 22:21:32 GMT 31.278402 -96.930672 19,625 321 337 -2560
2020-10-04 22:21:29 GMT 31.275284 -96.927582 19,725 320 339 -2560
2020-10-04 22:21:24 GMT 31.269278 -96.921608 21,025 308 357 -2560
2020-10-04 22:21:20 GMT 31.263132 -96.915123 20,150 318 345 -2496
2020-10-04 22:21:14 GMT 31.257547 -96.908974 20,375 316 347 -2560
2020-10-04 22:21:11 GMT 31.250153 -96.900223 20,750 314 350 -2560
2020-10-04 22:21:02 GMT 31.242464 -96.890076 20,950 310 356 -2624
2020-10-04 22:20:59 GMT 31.239576 -96.885849 21,075 308 357 -2560
2020-10-04 22:20:50 GMT 31.232346 -96.874153 21,400 303 364 -2752
2020-10-04 22:20:47 GMT 31.229462 -96.868828 21,550 301 367 -2752
2020-10-04 22:20:41 GMT 31.223610 -96.855797 21,850 294 373 -2176
2020-10-04 22:20:38 GMT 31.221268 -96.849434 21,975 291 377 -2048
2020-10-04 22:20:30 GMT 31.217651 -96.835747 22,300 282 384 -3392
2020-10-04 22:20:27 GMT 31.216675 -96.830032 22,450 279 386 -2496
2020-10-04 22:20:18 GMT 31.215500 -96.809639 22,800 268 388 -2048
2020-10-04 22:20:08 GMT 31.217651 -96.791031 23,100 251 384 -1984
2020-10-04 22:20:05 GMT 31.219070 -96.785027 23,875 230 381 -1536
2020-10-04 22:20:00 GMT 31.222166 -96.775269 23,425 244 383 -1984
2020-10-04 22:19:57 GMT 31.225113 -96.768227 23,475 239 382 -1856
2020-10-04 22:19:54 GMT 31.228363 -96.761818 23,600 236 381 -1792
2020-10-04 22:19:49 GMT 31.231567 -96.756378 23,725 231 381 -1664
2020-10-04 22:19:46 GMT 31.238892 -96.746414 23,875 223 381 -1536
2020-10-04 22:19:39 GMT 31.243814 -96.741043 24,000 213 382 -1600
2020-10-04 22:19:35 GMT 31.251343 -96.734184 24,100 215 382 -1600
2020-10-04 22:19:29 GMT 31.265228 -96.725113 24,275 206 383 -1600
2020-10-04 22:19:25 GMT 31.265228 -96.725113 24,425 202 383 -1600
2020-10-04 22:19:17 GMT 31.278992 -96.719482 24,550 194 384 -1472
2020-10-04 22:19:14 GMT 31.285950 -96.717651 24,650 191 384 -1472
2020-10-04 22:19:10 GMT 31.291204 -96.716713 24,725 187 384 -1280
2020-10-04 22:19:06 GMT 31.297989 -96.716042 24,875 176 384 -960
2020-10-04 22:19:02 GMT 31.304750 -96.715996 24,875 178 385 -1088
2020-10-04 22:18:57 GMT 31.312912 -96.716629 24,950 172 386 -704
2020-10-04 22:18:53 GMT 31.320904 -96.718193 24,975 166 392 -64
2020-10-04 22:18:49 GMT 31.327789 -96.720024 24,975 165 396 0
2020-10-04 22:18:46 GMT 31.334930 -96.722122 25,000 165 419 64
2020-10-04 22:18:42 GMT 31.339619 -96.723579 25,000 165 402 -64
2020-10-04 22:18:38 GMT 31.346558 -96.725624 25,000 165 407 0
2020-10-04 22:18:35 GMT 31.353537 -96.727753 25,000 165 411 64
2020-10-04 22:18:32 GMT 31.360519 -96.729828 25,000 165 413 -64
2020-10-04 22:18:28 GMT 31.366106 -96.731544 25,000 165 414 0
2020-10-04 22:18:25 GMT 31.373508 -96.733795 25,000 165 416 0
2020-10-04 22:18:20 GMT 31.381002 -96.736046 25,000 165 418 64
2020-10-04 22:18:17 GMT 31.386658 -96.737740 25,000 165 419 64
2020-10-04 22:18:13 GMT 31.393433 -96.739845 25,000 165 422 -64
2020-10-04 22:18:10 GMT 31.401764 -96.742371 25,000 165 422 -64
2020-10-04 22:18:07 GMT 31.405609 -96.743561 25,000 165 425 0
2020-10-04 22:18:04 GMT 31.413635 -96.745987 25,000 165 428 64
2020-10-04 22:18:01 GMT 31.417454 -96.747200 25,000 165 429 0
2020-10-04 22:17:58 GMT 31.422853 -96.748848 25,000 165 430 -64
2020-10-04 22:17:52 GMT 31.436462 -96.753036 25,000 165 435 0
2020-10-04 22:17:49 GMT 31.441910 -96.754707 25,000 165 437 64
2020-10-04 22:17:42 GMT 31.455322 -96.758911 25,000 165 440 0
2020-10-04 22:17:36 GMT 31.466007 -96.762253 25,000 164 443 -64
2020-10-04 22:17:32 GMT 31.474365 -96.764832 25,000 164 446 0
2020-10-04 22:17:29 GMT 31.482330 -96.767365 25,000 164 447 64
2020-10-04 22:17:26 GMT 31.486359 -96.768654 25,000 164 448 64
2020-10-04 22:17:21 GMT 31.498444 -96.772423 25,000 164 451 0
2020-10-04 22:17:17 GMT 31.510185 -96.776146 25,000 164 455 0
2020-10-04 22:17:11 GMT 31.517120 -96.778351 25,000 164 457 -64
2020-10-04 22:17:08 GMT 31.524445 -96.780716 25,000 164 457 -64
2020-10-04 22:17:05 GMT 31.528946 -96.782135 25,000 164 456 0
2020-10-04 22:17:02 GMT 31.533880 -96.783730 25,000 164 456 0
2020-10-04 22:16:58 GMT 31.544861 -96.787231 25,000 164 455 -64
2020-10-04 22:16:55 GMT 31.548889 -96.788582 25,000 164 454 -64
2020-10-04 22:16:51 GMT 31.556213 -96.790894 25,000 164 453 -64
2020-10-04 22:16:47 GMT 31.572372 -96.796120 25,000 164 450 64
2020-10-04 22:16:38 GMT 31.583179 -96.799606 25,000 164 448 0
2020-10-04 22:16:35 GMT 31.588394 -96.801292 25,000 164 448 0
2020-10-04 22:16:32 GMT 31.594398 -96.803230 25,000 164 446 0
2020-10-04 22:16:29 GMT 31.603197 -96.806030 25,000 164 445 0
2020-10-04 22:16:26 GMT 31.608738 -96.807846 25,000 164 444 0
2020-10-04 22:16:23 GMT 31.612694 -96.809105 25,000 164 442 -64
2020-10-04 22:16:18 GMT 31.623413 -96.812546 25,000 164 441 0
2020-10-04 22:16:15 GMT 31.628906 -96.814323 25,000 164 440 0
2020-10-04 22:16:12 GMT 31.634062 -96.815918 25,000 164 439 -64
2020-10-04 22:16:08 GMT 31.645046 -96.819382 25,000 165 436 64
2020-10-04 22:16:05 GMT 31.650925 -96.821220 25,000 165 436 0
2020-10-04 22:16:02 GMT 31.653660 -96.822067 25,000 165 435 0
2020-10-04 22:15:56 GMT 31.665344 -96.825638 25,000 165 432 -64
2020-10-04 22:15:52 GMT 31.687828 -96.832123 25,000 166 430 -64
2020-10-04 22:15:45 GMT 31.687828 -96.832123 25,000 167 426 0
2020-10-04 22:15:40 GMT 31.696301 -96.834373 25,025 171 410 128
2020-10-04 22:15:35 GMT 31.708969 -96.837372 25,000 169 421 -64
2020-10-04 22:15:30 GMT 31.721283 -96.839798 25,025 171 416 -64
2020-10-04 22:15:27 GMT 31.732332 -96.841789 25,025 171 416 -64
2020-10-04 22:15:23 GMT 31.732332 -96.841789 25,025 171 410 128
2020-10-04 22:15:19 GMT 31.736151 -96.842453 25,025 171 413 -64
2020-10-04 22:15:16 GMT 31.745228 -96.844101 25,025 171 410 128
2020-10-04 22:15:12 GMT 31.751978 -96.845306 25,000 171 408 256
2020-10-04 22:15:09 GMT 31.756495 -96.846077 25,000 171 404 192
2020-10-04 22:15:05 GMT 31.763535 -96.847389 24,975 171 405 192
2020-10-04 22:15:02 GMT 31.768021 -96.848198 24,975 171 401 192
2020-10-04 22:14:54 GMT 31.783493 -96.850967 24,950 171 399 512
2020-10-04 22:14:51 GMT 31.789352 -96.852005 24,900 171 398 704
2020-10-04 22:14:45 GMT 31.799183 -96.853790 24,775 171 397 1024
2020-10-04 22:14:42 GMT 31.806839 -96.855141 24,750 171 396 1088
2020-10-04 22:14:35 GMT 31.818466 -96.857170 24,650 171 396 1088
2020-10-04 22:14:31 GMT 31.824646 -96.858269 24,575 171 396 1088
2020-10-04 22:14:28 GMT 31.836983 -96.860344 24,450 171 394 1024
2020-10-04 22:14:25 GMT 31.847488 -96.862061 24,400 171 394 1024
2020-10-04 22:14:20 GMT 31.847488 -96.862061 24,350 171 394 960
2020-10-04 22:14:17 GMT 31.850761 -96.862640 24,325 171 393 1024
2020-10-04 22:14:13 GMT 31.858723 -96.863930 24,275 171 392 960
2020-10-04 22:14:10 GMT 31.866257 -96.865189 24,175 171 392 1216
2020-10-04 22:14:07 GMT 31.869522 -96.865723 24,150 171 392 1088
2020-10-04 22:14:04 GMT 31.874908 -96.866676 24,075 171 392 1152
2020-10-04 22:13:56 GMT 31.888550 -96.868980 23,925 171 391 1216
2020-10-04 22:13:51 GMT 31.897499 -96.870491 23,825 171 391 1152
2020-10-04 22:13:46 GMT 31.906811 -96.872063 23,700 171 390 1216
2020-10-04 22:13:41 GMT 31.914724 -96.873405 23,650 171 390 1216
2020-10-04 22:13:35 GMT 31.925432 -96.875252 23,475 171 389 1280
2020-10-04 22:13:31 GMT 31.935440 -96.876884 23,400 172 389 1280
2020-10-04 22:13:25 GMT 31.944351 -96.878319 23,300 172 388 1216
2020-10-04 22:13:20 GMT 31.952572 -96.879623 23,200 172 388 1216
2020-10-04 22:13:14 GMT 31.962936 -96.881340 23,100 172 388 1216
2020-10-04 22:13:10 GMT 31.970764 -96.882607 22,975 171 387 1280
2020-10-04 22:13:04 GMT 31.981108 -96.884338 22,900 171 387 1216
2020-10-04 22:13:00 GMT 31.990677 -96.885956 22,750 171 387 1216
2020-10-04 22:12:54 GMT 32.006973 -96.888809 22,625 171 386 1472
2020-10-04 22:12:50 GMT 32.006973 -96.888809 22,550 171 386 1472
2020-10-04 22:12:43 GMT 32.019012 -96.890900 22,425 171 386 1536
2020-10-04 22:12:40 GMT 32.026108 -96.892166 22,300 171 386 1472
2020-10-04 22:12:33 GMT 32.037064 -96.894089 21,975 171 387 1536
2020-10-04 22:12:28 GMT 32.044884 -96.895432 22,025 171 387 1536
2020-10-04 22:12:22 GMT 32.055176 -96.897217 21,875 171 387 1536
2020-10-04 22:12:19 GMT 32.061584 -96.898422 21,775 171 387 1472
2020-10-04 22:12:12 GMT 32.080765 -96.901993 21,600 170 387 1408
2020-10-04 22:12:08 GMT 32.080765 -96.901993 21,525 170 387 1536
2020-10-04 22:12:02 GMT 32.092117 -96.904083 21,300 170 387 1536
2020-10-04 22:11:58 GMT 32.099583 -96.905525 21,250 170 387 1472
2020-10-04 22:11:52 GMT 32.117706 -96.908920 21,075 170 387 1472
2020-10-04 22:11:48 GMT 32.117706 -96.908920 21,000 170 387 1536
2020-10-04 22:11:41 GMT 32.129059 -96.911118 20,825 170 388 1536
2020-10-04 22:11:37 GMT 32.150700 -96.915611 20,625 170 388 1536
2020-10-04 22:11:30 GMT 32.150700 -96.915611 20,525 169 389 1536
2020-10-04 22:11:27 GMT 32.161011 -96.917763 20,450 169 389 1536
2020-10-04 22:11:19 GMT 32.168106 -96.919243 20,275 170 388 1536
2020-10-04 22:11:14 GMT 32.176620 -96.921005 20,175 170 388 1472
2020-10-04 22:11:09 GMT 32.187660 -96.923180 20,000 170 389 1472
2020-10-04 22:11:05 GMT 32.206188 -96.926712 19,850 170 388 1472
2020-10-04 22:10:57 GMT 32.206188 -96.926712 19,750 170 388 1472
2020-10-04 22:10:54 GMT 32.213310 -96.928055 19,650 171 389 1536
2020-10-04 22:10:47 GMT 32.225414 -96.930298 19,425 171 389 1536
2020-10-04 22:10:44 GMT 32.230774 -96.931221 19,400 171 389 1536
2020-10-04 22:10:37 GMT 32.243683 -96.933250 19,225 173 389 1472
2020-10-04 22:10:34 GMT 32.247299 -96.933746 19,175 173 390 1472
2020-10-04 22:10:27 GMT 32.260609 -96.935234 19,000 176 389 1472
2020-10-04 22:10:24 GMT 32.266754 -96.935669 18,900 177 390 1536
2020-10-04 22:10:16 GMT 32.285568 -96.935448 18,625 186 390 1536
2020-10-04 22:10:04 GMT 32.303375 -96.931824 18,400 195 389 1408
2020-10-04 22:09:54 GMT 32.319775 -96.926826 18,125 195 390 1344
2020-10-04 22:09:51 GMT 32.325027 -96.925179 18,150 195 390 1280
2020-10-04 22:09:48 GMT 32.332439 -96.922897 18,075 195 390 1152
2020-10-04 22:09:44 GMT 32.338348 -96.921112 18,000 195 389 576
2020-10-04 22:09:40 GMT 32.344666 -96.919189 17,950 195 387 320
2020-10-04 22:09:32 GMT 32.358536 -96.914963 17,850 195 383 960
2020-10-04 22:09:29 GMT 32.364029 -96.913254 17,850 195 383 1024
2020-10-04 22:09:25 GMT 32.372612 -96.910683 17,775 195 382 1088
2020-10-04 22:09:21 GMT 32.376057 -96.909615 17,725 195 382 1088
2020-10-04 22:09:18 GMT 32.382568 -96.907654 17,675 195 382 1024
2020-10-04 22:09:12 GMT 32.394196 -96.904137 17,550 195 380 1024
2020-10-04 22:09:09 GMT 32.396942 -96.903313 17,525 195 380 1024
2020-10-04 22:09:04 GMT 32.406876 -96.900314 17,425 195 379 960
2020-10-04 22:09:01 GMT 32.412003 -96.898811 17,375 195 378 1024
2020-10-04 22:08:57 GMT 32.417068 -96.897224 17,225 195 377 1088
2020-10-04 22:08:51 GMT 32.430359 -96.893265 17,175 195 376 1152
2020-10-04 22:08:47 GMT 32.435410 -96.891792 17,125 195 375 1280
2020-10-04 22:08:43 GMT 32.441849 -96.889854 17,050 195 375 1216
2020-10-04 22:08:40 GMT 32.447891 -96.888046 16,950 195 374 1344
2020-10-04 22:08:37 GMT 32.453979 -96.886230 16,900 195 374 1472
2020-10-04 22:08:33 GMT 32.460361 -96.884277 16,800 195 374 1536
2020-10-04 22:08:28 GMT 32.467484 -96.882164 16,675 195 374 1536
2020-10-04 22:08:19 GMT 32.483967 -96.877220 16,450 195 374 1536
2020-10-04 22:08:11 GMT 32.496071 -96.873573 16,325 195 374 1536
2020-10-04 22:08:06 GMT 32.503143 -96.871399 16,050 195 374 1472
2020-10-04 22:07:59 GMT 32.520275 -96.866173 15,900 195 374 1472
2020-10-04 22:07:51 GMT 32.538162 -96.860687 15,700 195 375 1216
2020-10-04 22:07:47 GMT 32.538162 -96.860687 15,675 195 374 896
2020-10-04 22:07:41 GMT 32.545879 -96.858330 15,600 195 374 896
2020-10-04 22:07:38 GMT 32.551575 -96.856567 15,525 195 373 896
2020-10-04 22:07:30 GMT 32.565945 -96.852104 15,400 195 371 1088
2020-10-04 22:07:26 GMT 32.572601 -96.850029 15,325 195 369 1088
2020-10-04 22:07:23 GMT 32.577530 -96.848495 15,275 196 368 1088
2020-10-04 22:07:19 GMT 32.582886 -96.846786 15,200 196 368 1088
2020-10-04 22:07:15 GMT 32.590805 -96.844261 15,125 196 366 1088
2020-10-04 22:07:12 GMT 32.594788 -96.842941 15,075 196 366 1152
2020-10-04 22:07:08 GMT 32.605652 -96.839439 14,950 196 365 896
2020-10-04 22:07:05 GMT 32.605652 -96.839439 14,925 196 365 896
2020-10-04 22:07:02 GMT 32.611862 -96.837448 14,900 196 364 960
2020-10-04 22:06:58 GMT 32.617035 -96.835747 14,850 196 363 1280
2020-10-04 22:06:54 GMT 32.625206 -96.833107 14,800 196 363 1344
2020-10-04 22:06:50 GMT 32.630768 -96.831299 14,650 196 361 1344
2020-10-04 22:06:47 GMT 32.634659 -96.829979 14,600 196 361 1408
2020-10-04 22:06:44 GMT 32.640148 -96.828171 14,475 196 361 1408
2020-10-04 22:06:41 GMT 32.651134 -96.824585 14,425 196 360 1536
2020-10-04 22:06:38 GMT 32.651134 -96.824585 14,350 196 360 1600
2020-10-04 22:06:33 GMT 32.658863 -96.822006 14,225 196 360 1344
2020-10-04 22:06:28 GMT 32.665939 -96.819710 14,125 196 359 1216
2020-10-04 22:06:24 GMT 32.672409 -96.817574 14,050 196 356 1024
2020-10-04 22:06:20 GMT 32.679199 -96.815369 13,925 196 356 1280
2020-10-04 22:06:16 GMT 32.684967 -96.813499 13,875 196 356 1024
2020-10-04 22:06:13 GMT 32.688812 -96.812241 13,825 195 354 1600
2020-10-04 22:06:10 GMT 32.694534 -96.810425 13,750 195 354 1472
2020-10-04 22:06:07 GMT 32.699615 -96.808830 13,675 195 354 1600
2020-10-04 22:06:04 GMT 32.703739 -96.807541 13,575 195 353 1536
2020-10-04 22:06:01 GMT 32.709778 -96.805756 13,500 195 353 1472
2020-10-04 22:05:58 GMT 32.714584 -96.804291 13,425 194 353 1472
2020-10-04 22:05:55 GMT 32.718403 -96.803169 13,300 194 353 1600
2020-10-04 22:05:50 GMT 32.727631 -96.800591 13,225 193 352 1536
2020-10-04 22:05:45 GMT 32.735367 -96.798561 13,175 193 352 1536
2020-10-04 22:05:41 GMT 32.739536 -96.797508 13,050 192 352 1664
2020-10-04 22:05:36 GMT 32.748524 -96.795601 12,875 189 352 1536
2020-10-04 22:05:32 GMT 32.755039 -96.794479 12,825 188 352 1408
2020-10-04 22:05:25 GMT 32.765514 -96.793419 12,650 183 351 1536
2020-10-04 22:05:22 GMT 32.771378 -96.793198 12,575 182 351 1408
2020-10-04 22:05:18 GMT 32.779541 -96.792953 12,425 182 349 1728
2020-10-04 22:05:15 GMT 32.782791 -96.792847 12,325 182 349 1792
2020-10-04 22:05:10 GMT 32.790932 -96.792580 12,075 182 349 1536
2020-10-04 22:05:05 GMT 32.798355 -96.792351 12,075 182 348 1344
2020-10-04 22:05:02 GMT 32.809040 -96.791962 12,000 182 346 1344
2020-10-04 22:04:55 GMT 32.815842 -96.791695 11,825 183 343 1536
2020-10-04 22:04:51 GMT 32.822891 -96.791367 11,725 183 342 1472
2020-10-04 22:04:43 GMT 32.833340 -96.790894 11,625 183 340 1216
2020-10-04 22:04:40 GMT 32.839020 -96.790619 11,525 183 338 1344
2020-10-04 22:04:34 GMT 32.848755 -96.790154 11,400 183 335 1600
2020-10-04 22:04:31 GMT 32.858093 -96.789719 11,275 183 333 1216
2020-10-04 22:04:23 GMT 32.864822 -96.789444 11,175 183 330 1600
2020-10-04 22:04:20 GMT 32.874958 -96.788986 11,025 183 328 1216
2020-10-04 22:04:12 GMT 32.881474 -96.788765 10,925 182 325 1024
2020-10-04 22:04:09 GMT 32.885853 -96.788597 10,825 182 321 1536
2020-10-04 22:04:03 GMT 32.895954 -96.788315 10,675 181 319 1536
2020-10-04 22:03:59 GMT 32.901581 -96.788284 10,600 181 316 1344
2020-10-04 22:03:56 GMT 32.904510 -96.788231 10,425 179 313 1280
2020-10-04 22:03:51 GMT 32.912434 -96.788376 10,475 179 313 1344
2020-10-04 22:03:47 GMT 32.919708 -96.788620 10,300 176 310 1984
2020-10-04 22:03:42 GMT 32.926350 -96.789101 10,150 174 310 1920
2020-10-04 22:03:38 GMT 32.931290 -96.789658 10,050 172 309 1920
2020-10-04 22:03:35 GMT 32.935318 -96.790268 9,950 166 309 2048
2020-10-04 22:03:32 GMT 32.940994 -96.791306 9,875 170 309 1984
2020-10-04 22:03:28 GMT 32.946671 -96.792740 9,675 165 309 2240
2020-10-04 22:03:25 GMT 32.948959 -96.793396 9,600 162 311 2496
2020-10-04 22:03:20 GMT 32.958054 -96.797005 9,350 157 313 2432
2020-10-04 22:03:17 GMT 32.960194 -96.798126 9,325 153 315 2240
2020-10-04 22:03:14 GMT 32.965622 -96.801582 9,125 145 317 1984
2020-10-04 22:03:11 GMT 32.969009 -96.804436 9,000 140 318 1856
2020-10-04 22:03:07 GMT 32.973495 -96.809052 8,925 135 317 1856
2020-10-04 22:03:04 GMT 32.975189 -96.811028 8,875 130 316 2048
2020-10-04 22:03:00 GMT 32.980591 -96.818443 8,675 129 315 2560
2020-10-04 22:02:56 GMT 32.983379 -96.822510 8,575 128 315 2112
2020-10-04 22:02:50 GMT 32.989571 -96.831818 8,300 127 314 2112
2020-10-04 22:02:46 GMT 32.992905 -96.837120 7,400 99 281 1472
2020-10-04 22:02:43 GMT 32.995434 -96.841347 7,400 99 281 1472
2020-10-04 22:02:37 GMT 33.006420 -96.855179 7,400 99 281 1472
2020-10-04 22:02:34 GMT 33.006420 -96.855179 7,400 99 281 1472
2020-10-04 22:02:31 GMT 33.007069 -96.859749 7,400 99 281 1472
2020-10-04 22:02:28 GMT 33.007721 -96.864319 7,400 99 281 2496
2020-10-04 22:02:25 GMT 33.008369 -96.868889 7,400 99 281 2496
2020-10-04 22:02:22 GMT 33.009022 -96.873459 7,400 99 281 2496
2020-10-04 22:02:19 GMT 33.009670 -96.878029 7,400 99 281 2496
2020-10-04 22:02:16 GMT 33.010502 -96.883003 7,300 99 276 2496
2020-10-04 22:02:13 GMT 33.011131 -96.887489 7,300 99 276 2496
2020-10-04 22:02:10 GMT 33.011360 -96.891708 7,000 99 280 2496
2020-10-04 22:02:07 GMT 33.012951 -96.896851 7,000 99 280 2496
2020-10-04 22:02:04 GMT 33.013470 -96.901283 7,000 97 271 2496
2020-10-04 22:02:01 GMT 33.013599 -96.905327 6,800 98 275 2496
2020-10-04 22:01:58 GMT 33.014179 -96.909813 6,800 98 275 2496
2020-10-04 22:01:55 GMT 33.014759 -96.914337 6,500 97 272 2496
2020-10-04 22:01:52 GMT 33.015320 -96.918907 6,500 96 268 2496
2020-10-04 22:01:49 GMT 33.015770 -96.923302 6,500 96 268 2496
2020-10-04 22:01:46 GMT 33.016708 -96.931999 6,300 94 267 2496
2020-10-04 22:01:43 GMT 33.016708 -96.931999 6,000 93 268 2496
2020-10-04 22:01:40 GMT 33.016949 -96.936417 6,000 93 268 2496
2020-10-04 22:01:37 GMT 33.017071 -96.940643 6,000 92 272 2496
2020-10-04 22:01:34 GMT 33.017208 -96.945038 6,000 92 272 2496
2020-10-04 22:01:31 GMT 33.017319 -96.949501 5,800 90 270 2496
2020-10-04 22:01:28 GMT 33.017231 -96.953629 5,400 88 274 1216
2020-10-04 22:01:25 GMT 33.017368 -96.957970 5,400 88 274 1216
2020-10-04 22:01:22 GMT 33.017151 -96.962448 5,400 84 272 1216
2020-10-04 22:01:19 GMT 33.017101 -96.966682 5,200 77 270 1216
2020-10-04 22:01:16 GMT 33.016541 -96.971092 5,200 77 270 1216
2020-10-04 22:01:13 GMT 33.016102 -96.975479 4,900 69 261 1216
2020-10-04 22:01:10 GMT 33.015980 -96.980110 4,900 57 254 1216
2020-10-04 22:01:07 GMT 33.014370 -96.983841 4,900 57 254 1216
2020-10-04 22:01:04 GMT 33.013359 -96.988159 4,775 61 248 2240
2020-10-04 22:01:01 GMT 33.009480 -96.994942 4,600 34 248 1216
2020-10-04 22:00:58 GMT 33.009480 -96.994942 4,600 34 248 1216
2020-10-04 22:00:55 GMT 33.007339 -96.998222 4,400 25 250 1216
2020-10-04 22:00:52 GMT 33.004608 -97.001099 4,200 20 245 1216
2020-10-04 22:00:49 GMT 33.001431 -97.002586 4,200 20 245 1216
2020-10-04 22:00:46 GMT 32.998299 -97.004463 4,200 18 237 1216
2020-10-04 22:00:43 GMT 32.995090 -97.005653 4,200 18 237 1216
2020-10-04 22:00:40 GMT 32.992069 -97.006897 4,100 19 230 1216
2020-10-04 22:00:37 GMT 32.988602 -97.008331 3,900 18 206 1216
2020-10-04 22:00:34 GMT 32.985271 -97.009720 3,900 18 193 1216
2020-10-04 22:00:31 GMT 32.982738 -97.010757 3,900 18 193 1216
2020-10-04 22:00:28 GMT 32.980000 -97.011902 3,800 18 188 1216
2020-10-04 22:00:25 GMT 32.977520 -97.012901 3,800 18 188 1312
2020-10-04 22:00:22 GMT 32.975121 -97.013893 3,700 18 200 1312
2020-10-04 22:00:19 GMT 32.972618 -97.014862 3,500 18 209 1312
2020-10-04 22:00:16 GMT 32.969769 -97.015968 3,500 18 200 1312
2020-10-04 22:00:13 GMT 32.967079 -97.017059 3,350 17 212 1312
2020-10-04 22:00:10 GMT 32.964470 -97.018028 3,200 18 210 1312
2020-10-04 22:00:07 GMT 32.961632 -97.019119 3,200 17 201 1312
2020-10-04 22:00:04 GMT 32.959000 -97.020142 2,950 17 201 1312
2020-10-04 22:00:01 GMT 32.956348 -97.021118 2,950 17 199 1312
2020-10-04 21:59:58 GMT 32.953720 -97.022148 2,825 17 205 1312
2020-10-04 21:59:55 GMT 32.951000 -97.023193 2,600 18 194 1312
2020-10-04 21:59:52 GMT 32.948330 -97.024162 2,400 18 195 1312
2020-10-04 21:59:49 GMT 32.945728 -97.025139 2,400 17 197 1312
2020-10-04 21:59:46 GMT 32.940651 -97.026901 2,300 13 194 1312
2020-10-04 21:59:43 GMT 32.940651 -97.026901 2,200 12 198 1312
2020-10-04 21:59:40 GMT 32.937859 -97.027641 2,000 12 188 1312
2020-10-04 21:59:37 GMT 32.935349 -97.028297 2,000 10 189 1312
2020-10-04 21:59:34 GMT 32.932819 -97.028877 1,950 9 192 1312
2020-10-04 21:59:31 GMT 32.930161 -97.029381 1,950 9 186 1312
2020-10-04 21:59:28 GMT 32.927681 -97.029823 1,825 6 180 1312
2020-10-04 21:59:25 GMT 32.925209 -97.030167 1,800 5 167 1792
2020-10-04 21:59:22 GMT 32.922749 -97.030411 1,700 2 153 1792
2020-10-04 21:59:19 GMT 32.920631 -97.030518 1,600 1 162 1792
2020-10-04 21:59:16 GMT 32.918388 -97.030563 1,550 1 159 1792
2020-10-04 21:59:13 GMT 32.916142 -97.030640 1,400 1 161 1792
2020-10-04 21:59:10 GMT 32.913960 -97.030602 900 0 154 1792
2020-10-04 21:59:07 GMT 32.909618 -97.030571 900 358 151 1792
2020-10-04 21:59:04 GMT 32.909618 -97.030571 900 358 159 1792
2020-10-04 21:59:01 GMT 32.907398 -97.030487 900 358 155 1792
2020-10-04 21:58:58 GMT 32.905300 -97.030434 775 358 159 1792
2020-10-04 21:58:55 GMT 32.903091 -97.030380 775 358 154 1792
2020-10-04 21:58:52 GMT 32.900970 -97.030296 600 357 155 1792
2020-10-04 21:58:49 GMT 32.896790 -97.030128 500 357 149 1792
2020-10-04 21:58:46 GMT 32.896790 -97.030128 425 357 149 1792
2020-10-04 21:58:43 GMT 32.894749 -97.030037 350 359 148 -352
2020-10-04 21:58:40 GMT 32.892689 -97.030006 350 359 143 -352
2020-10-04 21:58:37 GMT 32.890739 -97.029999 350 0 138 -352
2020-10-04 21:58:34 GMT 32.887138 -97.030037 350 0 119 832
2020-10-04 21:58:31 GMT 32.887138 -97.030037 350 359 112 832
2020-10-04 21:58:28 GMT 32.885559 -97.030060 0 359 102 832
2020-10-04 21:58:25 GMT 32.884171 -97.030029 0 0 95 0
2020-10-04 21:58:22 GMT 32.881840 -97.030067 0 0 74 0
2020-10-04 21:58:19 GMT 32.881840 -97.030067 0 0 63 0
2020-10-04 21:58:16 GMT 32.880951 -97.030067 0 0 52 0
2020-10-04 21:58:13 GMT 32.880268 -97.030083 0 0 43 0
2020-10-04 21:58:10 GMT 32.879478 -97.030083 0 358 9 0
2020-10-04 21:58:07 GMT 32.879478 -97.030083 0 349 3 0
2020-10-04 21:58:04 GMT 32.879372 -97.030090 0 349 0 0
2020-10-04 21:58:01 GMT 32.879360 -97.030083 0 349 0 0
2020-10-04 21:57:56 GMT 32.879360 -97.030090 0 349 0 0
2020-10-04 21:57:53 GMT 32.879360 -97.030083 0 349 0 0
2020-10-04 21:57:50 GMT 32.879349 -97.030083 0 349 1 0
2020-10-04 21:57:47 GMT 32.879360 -97.030083 0 349 0 0
2020-10-04 21:57:44 GMT 32.879372 -97.030090 0 348 1 0
2020-10-04 21:57:41 GMT 32.879311 -97.030090 0 353 7 0
2020-10-04 21:57:38 GMT 32.879261 -97.030060 0 16 7 0
2020-10-04 21:57:35 GMT 32.879169 -97.030060 0 32 6 0
2020-10-04 21:57:32 GMT 32.879070 -97.030121 0 79 8 0
2020-10-04 21:57:29 GMT 32.879028 -97.030251 0 90 9 0
2020-10-04 21:57:26 GMT 32.879040 -97.030403 0 86 10 64
2020-10-04 21:57:23 GMT 32.879021 -97.030571 0 101 8 64
2020-10-04 21:57:20 GMT 32.879051 -97.030708 0 83 9 64
2020-10-04 21:57:17 GMT 32.879028 -97.030869 0 87 7 64
2020-10-04 21:57:14 GMT 32.879028 -97.031052 0 92 6 64
2020-10-04 21:57:11 GMT 32.879040 -97.031212 0 90 1 -32
2020-10-04 21:57:08 GMT 32.879051 -97.031281 0 90 1 0
2020-10-04 21:57:05 GMT 32.879051 -97.031281 0 90 0 0
2020-10-04 21:57:02 GMT 32.879059 -97.031250 0 90 0 0
2020-10-04 21:56:59 GMT 32.879070 -97.031242 0 90 0 0
2020-10-04 21:56:56 GMT 32.879059 -97.031227 0 90 0 0
2020-10-04 21:56:53 GMT 32.879059 -97.031242 0 90 0 0
2020-10-04 21:56:50 GMT 32.879040 -97.031242 0 90 0 -32
2020-10-04 21:56:47 GMT 32.879040 -97.031250 0 90 0 32
2020-10-04 21:56:44 GMT 32.879051 -97.031258 0 90 0 0
2020-10-04 21:56:41 GMT 32.879040 -97.031250 0 90 0 64
2020-10-04 21:56:35 GMT 32.879051 -97.031250 0 90 0 64
2020-10-04 21:56:32 GMT 32.879040 -97.031250 0 90 0 0
2020-10-04 21:56:29 GMT 32.879051 -97.031250 0 90 0 0
2020-10-04 21:56:26 GMT 32.879051 -97.031250 0 90 0 0
2020-10-04 21:56:23 GMT 32.879051 -97.031242 0 90 0 0
2020-10-04 21:56:20 GMT 32.879051 -97.031227 0 90 0 0
2020-10-04 21:56:17 GMT 32.879089 -97.031281 0 90 2 0
2020-10-04 21:56:14 GMT 32.879021 -97.031258 0 90 0 32
2020-10-04 21:56:11 GMT 32.879009 -97.031250 0 90 1 32
2020-10-04 21:56:08 GMT 32.879051 -97.031250 0 90 0 0
2020-10-04 21:56:05 GMT 32.879040 -97.031258 0 90 0 0
2020-10-04 21:55:58 GMT 32.879059 -97.031250 0 90 0 -32
2020-10-04 21:55:55 GMT 32.879051 -97.031227 0 90 0 -32
2020-10-04 21:55:52 GMT 32.879051 -97.031227 0 90 0 64
2020-10-04 21:55:49 GMT 32.879059 -97.031250 0 90 0 0
2020-10-04 21:55:46 GMT 32.879040 -97.031250 0 90 0 -32
2020-10-04 21:55:43 GMT 32.879051 -97.031250 0 90 0 -32
2020-10-04 21:55:40 GMT 32.879059 -97.031242 0 90 0 0
2020-10-04 21:55:37 GMT 32.879040 -97.031258 0 90 0 0
2020-10-04 21:55:30 GMT 32.879051 -97.031258 0 90 0 0
2020-10-04 21:55:27 GMT 32.879051 -97.031250 0 90 0 0
2020-10-04 21:55:24 GMT 32.879028 -97.031273 0 90 0 0
2020-10-04 21:55:21 GMT 32.879059 -97.031258 0 90 0 96
2020-10-04 21:55:18 GMT 32.879089 -97.031273 0 90 1 96
2020-10-04 21:55:15 GMT 32.879059 -97.031197 0 90 3 96
2020-10-04 21:55:12 GMT 32.879051 -97.031250 0 90 0 96
2020-10-04 21:55:09 GMT 32.879070 -97.031250 0 90 0 96
2020-10-04 21:55:06 GMT 32.879070 -97.031273 0 90 1 96
2020-10-04 21:55:03 GMT 32.879051 -97.031258 0 90 1 96
2020-10-04 21:55:00 GMT 32.879059 -97.031258 0 90 0 96
2020-10-04 21:54:57 GMT 32.879059 -97.031273 0 90 0 96
2020-10-04 21:54:54 GMT 32.879070 -97.031281 0 90 2 0
2020-10-04 21:54:51 GMT 32.879051 -97.031250 0 90 3 0
2020-10-04 21:54:48 GMT 32.879051 -97.031227 0 91 2 0
2020-10-04 21:54:45 GMT 32.879040 -97.031250 0 91 8 0
2020-10-04 21:54:42 GMT 32.879028 -97.031349 0 96 8 0
2020-10-04 21:54:39 GMT 32.879040 -97.031487 0 98 11 0
2020-10-04 21:54:36 GMT 32.879070 -97.031677 0 85 12 0
2020-10-04 21:54:33 GMT 32.879051 -97.031860 0 90 12 0
2020-10-04 21:54:30 GMT 32.879040 -97.032051 0 92 11 0
2020-10-04 21:54:27 GMT 32.879028 -97.032242 0 95 12 0
2020-10-04 21:54:24 GMT 32.879051 -97.032417 0 97 14 0
2020-10-04 21:54:21 GMT 32.879089 -97.032661 0 85 13 0
2020-10-04 21:54:18 GMT 32.879070 -97.032860 0 84 10 0
2020-10-04 21:54:15 GMT 32.879040 -97.033051 0 104 9 0
2020-10-04 21:54:12 GMT 32.879040 -97.033180 0 108 11 0
2020-10-04 21:54:09 GMT 32.879101 -97.033363 0 107 10 0
2020-10-04 21:54:06 GMT 32.879108 -97.033508 0 133 9 0
2020-10-04 21:54:03 GMT 32.879189 -97.033630 0 144 10 0
2020-10-04 21:54:00 GMT 32.879292 -97.033752 0 177 10 0
2020-10-04 21:53:57 GMT 32.879410 -97.033768 0 177 13 0
2020-10-04 21:53:54 GMT 32.879551 -97.033813 0 191 16 0
2020-10-04 21:53:51 GMT 32.879768 -97.033752 0 180 15 0
2020-10-04 21:53:48 GMT 32.879978 -97.033760 0 177 16 0
2020-10-04 21:53:45 GMT 32.880470 -97.033768 0 181 19 0
2020-10-04 21:53:42 GMT 32.880470 -97.033768 0 181 18 0
2020-10-04 21:53:39 GMT 32.880711 -97.033752 0 181 19 0
2020-10-04 21:53:36 GMT 32.880970 -97.033737 0 177 21 0
2020-10-04 21:53:33 GMT 32.881248 -97.033737 0 181 22 0
2020-10-04 21:53:30 GMT 32.881851 -97.033730 0 172 21 0
2020-10-04 21:53:27 GMT 32.881851 -97.033730 0 182 20 0
2020-10-04 21:53:24 GMT 32.882130 -97.033760 0 181 18 -32
2020-10-04 21:53:21 GMT 32.882389 -97.033752 0 181 19 -32
2020-10-04 21:53:18 GMT 32.882660 -97.033752 0 181 16 -32
2020-10-04 21:53:15 GMT 32.882881 -97.033752 0 178 16 -32
2020-10-04 21:53:12 GMT 32.883121 -97.033737 0 178 17 -32
2020-10-04 21:53:09 GMT 32.883579 -97.033760 0 178 15 -32
2020-10-04 21:53:06 GMT 32.883801 -97.033760 0 179 15 -32
2020-10-04 21:53:03 GMT 32.883801 -97.033760 0 178 14 -32
2020-10-04 21:53:00 GMT 32.883999 -97.033768 0 180 13 -64
2020-10-04 21:52:57 GMT 32.884190 -97.033783 0 181 13 0
2020-10-04 21:52:54 GMT 32.884361 -97.033768 0 178 11 0
2020-10-04 21:52:51 GMT 32.884521 -97.033768 0 176 11 0
2020-10-04 21:52:48 GMT 32.884811 -97.033882 0 138 11 0
2020-10-04 21:52:45 GMT 32.884811 -97.033882 0 133 10 0
2020-10-04 21:52:42 GMT 32.884930 -97.033997 0 118 9 0
2020-10-04 21:52:39 GMT 32.885021 -97.034103 0 105 13 0
2020-10-04 21:52:36 GMT 32.885059 -97.034332 0 102 9 0
2020-10-04 21:52:33 GMT 32.885040 -97.034508 0 118 10 0
2020-10-04 21:52:30 GMT 32.885109 -97.034599 0 131 11 0
2020-10-04 21:52:27 GMT 32.885220 -97.034782 0 151 9 0
2020-10-04 21:52:24 GMT 32.885429 -97.034843 0 183 10 64
2020-10-04 21:52:21 GMT 32.885429 -97.034843 0 199 11 64
2020-10-04 21:52:18 GMT 32.885571 -97.034843 0 191 9 64
2020-10-04 21:52:15 GMT 32.885719 -97.034843 0 218 8 64
2020-10-04 21:52:12 GMT 32.885780 -97.034790 0 209 8 64
2020-10-04 21:52:09 GMT 32.885860 -97.034729 0 207 6 64
2020-10-04 21:52:06 GMT 32.885948 -97.034660 0 192 9 64
2020-10-04 21:52:03 GMT 32.886051 -97.034554 0 184 10 64
2020-10-04 21:52:00 GMT 32.886162 -97.034569 0 210 5 64
2020-10-04 21:51:57 GMT 32.886219 -97.034523 0 208 5 64
2020-10-04 21:51:54 GMT 32.886280 -97.034447 0 199 5 64
2020-10-04 21:51:51 GMT 32.886341 -97.034439 0 190 4 64
2020-10-04 21:51:48 GMT 32.886421 -97.034462 0 206 4 64
2020-10-04 21:51:45 GMT 32.886452 -97.034500 0 213 1 64
2020-10-04 21:51:42 GMT 32.886501 -97.034401 0 206 5 64
2020-10-04 21:51:39 GMT 32.886509 -97.034492 0 238 1 64
2020-10-04 21:51:36 GMT 32.886509 -97.034492 0 243 2 64
2020-10-04 21:51:33 GMT 32.886570 -97.034500 0 246 0 32
2020-10-04 21:51:29 GMT 32.886570 -97.034523 0 246 0 32
2020-10-04 21:51:26 GMT 32.886559 -97.034523 0 245 0 32
2020-10-04 21:51:23 GMT 32.886559 -97.034508 0 245 0 -32
2020-10-04 21:51:20 GMT 32.886570 -97.034508 0 245 0 0
2020-10-04 21:51:15 GMT 32.886581 -97.034538 0 246 0 0
2020-10-04 21:51:12 GMT 32.886581 -97.034554 0 246 0 0
2020-10-04 21:51:09 GMT 32.886570 -97.034531 0 246 0 0
2020-10-04 21:51:06 GMT 32.886581 -97.034538 0 252 1 0
2020-10-04 21:51:03 GMT 32.886581 -97.034531 0 255 0 0
2020-10-04 21:51:00 GMT 32.886581 -97.034531 0 255 0 0
2020-10-04 21:50:57 GMT 32.886581 -97.034538 0 255 0 0
2020-10-04 21:50:54 GMT 32.886581 -97.034523 0 255 0 0
2020-10-04 21:50:51 GMT 32.886570 -97.034508 0 255 0 0
2020-10-04 21:50:45 GMT 32.886581 -97.034492 0 255 1 32
2020-10-04 21:50:42 GMT 32.886581 -97.034492 0 256 0 32
2020-10-04 21:50:39 GMT 32.886570 -97.034500 0 257 1 32
2020-10-04 21:50:36 GMT 32.886600 -97.034538 0 263 0 0
2020-10-04 21:50:33 GMT 32.886608 -97.034531 0 265 0 96
2020-10-04 21:50:30 GMT 32.886581 -97.034538 0 265 0 96
2020-10-04 21:50:27 GMT 32.886608 -97.034592 0 265 0 96
2020-10-04 21:50:24 GMT 32.886608 -97.034599 0 260 0 0
2020-10-04 21:50:21 GMT 32.886608 -97.034599 0 260 0 0
2020-10-04 21:50:16 GMT 32.886608 -97.034592 0 260 0 0
2020-10-04 21:50:13 GMT 32.886608 -97.034576 0 260 0 0
2020-10-04 21:50:10 GMT 32.886631 -97.034569 0 261 0 32
2020-10-04 21:50:07 GMT 32.886620 -97.034576 0 259 0 32
2020-10-04 21:50:04 GMT 32.886608 -97.034592 0 258 0 32
2020-10-04 21:50:01 GMT 32.886608 -97.034599 0 258 0 0
2020-10-04 21:49:58 GMT 32.886620 -97.034592 0 258 0 0
2020-10-04 21:49:55 GMT 32.886620 -97.034576 0 258 0 0
2020-10-04 21:49:52 GMT 32.886608 -97.034592 0 257 0 0
2020-10-04 21:49:49 GMT 32.886608 -97.034561 0 257 0 32
2020-10-04 21:49:46 GMT 32.886608 -97.034576 0 257 0 0
2020-10-04 21:49:43 GMT 32.886620 -97.034569 0 257 0 0
2020-10-04 21:49:40 GMT 32.886620 -97.034592 0 257 0 0
2020-10-04 21:49:36 GMT 32.886608 -97.034592 0 257 0 0
2020-10-04 21:49:33 GMT 32.886608 -97.034561 0 257 0 0
2020-10-04 21:49:30 GMT 32.886608 -97.034561 0 256 0 32
2020-10-04 21:49:25 GMT 32.886620 -97.034554 0 256 0 32
2020-10-04 21:49:22 GMT 32.886639 -97.034561 0 256 0 32
2020-10-04 21:49:19 GMT 32.886620 -97.034561 0 256 0 -32
2020-10-04 21:49:16 GMT 32.886608 -97.034538 0 256 0 -32
2020-10-04 21:49:13 GMT 32.886608 -97.034531 0 256 0 0
2020-10-04 21:49:10 GMT 32.886608 -97.034561 0 256 0 0
2020-10-04 21:49:07 GMT 32.886608 -97.034554 0 256 0 0
2020-10-04 21:49:04 GMT 32.886608 -97.034561 0 256 0 0
2020-10-04 21:49:01 GMT 32.886620 -97.034561 0 256 0 0
2020-10-04 21:48:58 GMT 32.886620 -97.034538 0 256 0 0
2020-10-04 21:48:55 GMT 32.886608 -97.034561 0 256 0 0
2020-10-04 21:48:52 GMT 32.886608 -97.034561 0 256 0 0
2020-10-04 21:48:49 GMT 32.886631 -97.034554 0 257 0 32
2020-10-04 21:48:46 GMT 32.886620 -97.034561 0 257 0 32
2020-10-04 21:48:43 GMT 32.886631 -97.034538 0 257 0 32
2020-10-04 21:48:40 GMT 32.886620 -97.034576 0 257 0 32
2020-10-04 21:48:37 GMT 32.886631 -97.034569 0 257 0 -32
2020-10-04 21:48:32 GMT 32.886620 -97.034576 0 257 0 -32
2020-10-04 21:48:28 GMT 32.886631 -97.034569 0 257 0 -32
2020-10-04 21:48:25 GMT 32.886620 -97.034561 0 257 0 -32
2020-10-04 21:48:22 GMT 32.886620 -97.034554 0 257 0 32
2020-10-04 21:48:19 GMT 32.886631 -97.034561 0 257 0 0
2020-10-04 21:48:16 GMT 32.886639 -97.034576 0 257 1 0
2020-10-04 21:48:13 GMT 32.886631 -97.034561 0 256 0 0
2020-10-04 21:48:10 GMT 32.886631 -97.034569 0 256 0 0
2020-10-04 21:48:07 GMT 32.886620 -97.034561 0 257 2 0
2020-10-04 21:48:04 GMT 32.886620 -97.034561 0 259 0 0
2020-10-04 21:48:01 GMT 32.886608 -97.034561 0 258 1 0
2020-10-04 21:47:58 GMT 32.886620 -97.034576 0 250 4 0
2020-10-04 21:47:55 GMT 32.886600 -97.034470 0 222 0 0
2020-10-04 21:47:52 GMT 32.886589 -97.034538 0 261 3 0
2020-10-04 21:47:49 GMT 32.886608 -97.034492 0 261 4 0
2020-10-04 21:47:46 GMT 32.886631 -97.034447 0 250 2 64
2020-10-04 21:47:43 GMT 32.886608 -97.034416 0 244 3 64
2020-10-04 21:47:40 GMT 32.886620 -97.034393 0 245 3 64
2020-10-04 21:47:37 GMT 32.886639 -97.034317 0 238 3 64
2020-10-04 21:47:34 GMT 32.886639 -97.034286 0 237 2 64
2020-10-04 21:47:31 GMT 32.886662 -97.034309 0 238 3 -64
2020-10-04 21:47:28 GMT 32.886688 -97.034264 0 241 7 -64
2020-10-04 21:47:25 GMT 32.886681 -97.034302 0 248 15
2020-10-04 21:47:22 GMT 32.886810 -97.034203 0 302 13

Making use of Plane Finder data

You are free to use the raw flight data, aircraft information and images provided in this report for your own purposes provided the data is correctly attributed to Plane Finder. We ask that you please credit Plane Finder and link to planefinder.net in close proximity to the content.

Optionally one of the following logos (no smaller then 150x24px) can be used and must link to planefinder.net

Embedding the Plane Finder map

You are welcome to embed the Plane Finder playback map on your website to offer visitors a more interactive experience. We suggest using the following HTML code:

<iframe src="//planefinder.net/data/report/AA4194-N622AE-7700-squawk-2020-10-04/map" width="800" height="600" seamless="seamless"></iframe>

Where our data comes from

Plane Finder has a global network of data feeds and antenna radars that receive data broadcast directly from aircraft. The primary technologies used are ADS-B and MLAT. We also show feeds from the FAA and a FLARM glider feed.

Click here to find out more about the Plane Finder network.

How we collect our data